Portada
METAR-TAF:

METAR-TAF

Aeroports :

Kupang, Indonèsia

latitud: 10-10-17S, longitud: 123-40-16E, altitud: 102 m

Observació

L'informe es va fer fa 29 minuts, a les 21:30 UTC
Vent 9 kt del Est
Temperatura 24°C
Humitat 83%
Pressió 1012 hPa
Visibilitat: 8000 m
Escasses núvols a una alçada de 1800 ft

METAR: WATT 102130Z 10009KT 8000 FEW018 24/21 Q1012 NOSIG

Hora: 04:59 (21:59 UTC)

Pronòstic

L'informe es va fer fa 4 hores i 59 minuts, a les 17:00 UTC
Pronòstic vàlid del 10 a les 18 UTC al 11 a les 18 UTC
Vent 8 kt del Est
Visibilitat: 8000 m
Escasses núvols a una alçada de 1800 ft
Evolucionant progressivament
l' 11 a les 03 UTC al 11 a les 05 UTC
Vent 12 kt del Est amb ràfegues de 22 kt

TAF: WATT 101700Z 1018/1118 09008KT 8000 FEW018 BECMG 1103/1105 10012G22KT

Observacions i pronòstics meteorològics de més de 4000 aeroports (METAR i TAF).

Les estacions disponibles són els punts grocs i vermells al mapa.

Posi el ratolí al punt desitjat per veure el nom de l'estació.

Feu clic per veure les observacions i els pronòstics meteorològics.

Per canviar el mapa: feu clic els botons verds amb una creu de color negre per apropar; al botó verd amb un guió per allunyar la imatge; o en les fletxes verdes per a mapes adjacents.


METAR-TAF: